Time;durP1;ratioP1;P1;durP2;ratioP2;P2;SDS_P1;SDS_P2;PMS_P1;PMS_P2;Temp;Humidity;BMP_temperature;BMP_pressure;BME280_temperature;BME280_humidity;BME280_pressure;Samples;Min_cycle;Max_cycle;Signal;HPM_P1;HPM_P2
2021/11/28 05:00:53;;;;;;;39.45;19.40;;;4.00;99.90;;;;;;5788707;23;20317;-70
2021/11/28 05:03:20;;;;;;;41.92;19.17;;;4.00;99.90;;;;;;5010330;28;20266;-70
2021/11/28 05:05:46;;;;;;;38.92;18.60;;;3.90;99.90;;;;;;5010855;28;20207;-70
2021/11/28 05:08:13;;;;;;;41.85;19.52;;;3.90;99.90;;;;;;5011103;28;20230;-70
2021/11/28 05:10:40;;;;;;;34.13;18.55;;;4.00;99.90;;;;;;5006042;28;20227;-70
2021/11/28 05:13:06;;;;;;;29.30;16.45;;;3.90;99.90;;;;;;4991059;28;20211;-70
2021/11/28 05:15:34;;;;;;;39.42;19.20;;;3.90;99.90;;;;;;5041892;23;20230;-72
2021/11/28 05:18:02;;;;;;;38.55;18.30;;;3.90;99.90;;;;;;5014816;28;20591;-72
2021/11/28 05:20:29;;;;;;;39.30;20.25;;;3.90;99.90;;;;;;5013965;28;20211;-72
2021/11/28 05:22:55;;;;;;;31.80;16.20;;;3.90;99.90;;;;;;5015343;28;20636;-72
2021/11/28 05:25:22;;;;;;;30.65;15.30;;;3.90;99.90;;;;;;5008126;28;20259;-72
2021/11/28 05:27:50;;;;;;;36.78;17.25;;;3.90;99.90;;;;;;4995463;28;20214;-72
2021/11/28 05:30:17;;;;;;;32.35;15.38;;;4.00;99.90;;;;;;4994723;28;20255;-72
2021/11/28 05:32:44;;;;;;;33.92;16.33;;;3.90;99.90;;;;;;4994713;28;20442;-72
2021/11/28 05:35:12;;;;;;;28.27;15.68;;;3.90;99.90;;;;;;4994181;28;20626;-72
2021/11/28 05:37:39;;;;;;;29.25;15.90;;;3.90;99.90;;;;;;4995026;28;20219;-72
2021/11/28 05:40:06;;;;;;;26.92;15.20;;;3.90;99.90;;;;;;4994231;28;20208;-72
2021/11/28 05:42:33;;;;;;;28.67;15.02;;;3.90;99.90;;;;;;4994678;28;20208;-72
2021/11/28 05:45:01;;;;;;;25.58;14.18;;;3.90;99.90;;;;;;4990393;28;20712;-72
2021/11/28 05:47:28;;;;;;;19.90;11.93;;;3.90;99.90;;;;;;4994188;28;20207;-72
2021/11/28 05:49:55;;;;;;;19.70;12.20;;;3.90;99.90;;;;;;4993261;28;20217;-73
2021/11/28 05:52:23;;;;;;;22.15;12.20;;;3.90;99.90;;;;;;4994690;28;20235;-73
2021/11/28 05:54:51;;;;;;;23.92;13.25;;;3.90;99.90;;;;;;4994215;28;20211;-73
2021/11/28 05:57:18;;;;;;;23.55;12.25;;;3.90;99.90;;;;;;4994452;28;20226;-73
2021/11/28 05:59:45;;;;;;;18.50;10.98;;;3.90;99.90;;;;;;4993896;28;20542;-73
2021/11/28 06:02:11;;;;;;;19.92;12.20;;;3.90;99.90;;;;;;4994277;28;20207;-73
2021/11/28 06:04:38;;;;;;;20.45;12.15;;;3.90;99.90;;;;;;4993624;28;20212;-73
2021/11/28 06:07:05;;;;;;;18.92;11.77;;;3.90;99.90;;;;;;4994315;28;20204;-73
2021/11/28 06:09:33;;;;;;;17.83;10.77;;;3.90;99.90;;;;;;4993609;28;20673;-73
2021/11/28 06:12:00;;;;;;;22.00;11.43;;;3.90;99.90;;;;;;4994402;28;20226;-73
2021/11/28 06:14:27;;;;;;;18.40;11.50;;;3.90;99.90;;;;;;4993583;28;20215;-72
2021/11/28 06:16:53;;;;;;;17.40;9.95;;;3.90;99.90;;;;;;4993841;28;20318;-73
2021/11/28 06:19:20;;;;;;;18.35;10.75;;;3.80;99.90;;;;;;4993286;28;20215;-73
2021/11/28 06:21:47;;;;;;;15.57;10.45;;;3.80;99.90;;;;;;4993671;28;20211;-73
2021/11/28 06:24:14;;;;;;;19.02;10.63;;;3.80;99.90;;;;;;4993789;28;20231;-73
2021/11/28 06:26:42;;;;;;;14.98;10.45;;;3.80;99.90;;;;;;4993029;28;20236;-73
2021/11/28 06:29:08;;;;;;;18.38;11.27;;;3.80;99.90;;;;;;4993562;28;20601;-72
2021/11/28 06:31:35;;;;;;;25.60;12.20;;;3.90;99.90;;;;;;4993828;28;20235;-73
2021/11/28 06:34:02;;;;;;;18.05;11.30;;;3.80;99.90;;;;;;4985749;28;20300;-72
2021/11/28 06:36:29;;;;;;;22.98;13.15;;;3.90;99.90;;;;;;4993762;28;20239;-72
2021/11/28 06:38:56;;;;;;;20.15;12.10;;;3.90;99.90;;;;;;4993826;28;20228;-72
2021/11/28 06:41:26;;;;;;;17.52;11.75;;;3.80;99.90;;;;;;4993810;28;20226;-72
2021/11/28 06:43:54;;;;;;;24.23;12.15;;;3.90;99.90;;;;;;4993992;28;20212;-72
2021/11/28 06:46:21;;;;;;;22.08;12.65;;;3.80;99.90;;;;;;4993749;28;20296;-72
2021/11/28 06:48:48;;;;;;;21.88;11.32;;;3.90;99.90;;;;;;4992999;28;20555;-72
2021/11/28 06:51:15;;;;;;;21.05;12.02;;;3.90;99.90;;;;;;4993647;28;20628;-73
2021/11/28 06:53:42;;;;;;;17.45;10.57;;;3.90;99.90;;;;;;4993492;28;20204;-72
2021/11/28 06:56:09;;;;;;;17.95;10.70;;;3.80;99.90;;;;;;4993351;28;20243;-73
2021/11/28 06:58:36;;;;;;;22.85;11.45;;;3.80;99.90;;;;;;4993633;28;20212;-72
2021/11/28 07:01:06;;;;;;;19.23;10.35;;;3.80;99.90;;;;;;4993522;28;20322;-72
2021/11/28 07:03:32;;;;;;;20.67;10.98;;;3.80;99.90;;;;;;4992505;28;20286;-73
2021/11/28 07:05:59;;;;;;;19.00;11.35;;;3.80;99.90;;;;;;4993867;28;20601;-72
2021/11/28 07:08:27;;;;;;;13.00;9.68;;;3.80;99.90;;;;;;4992915;28;20694;-72
2021/11/28 07:10:56;;;;;;;15.15;10.13;;;3.80;99.90;;;;;;4993755;28;20208;-72
2021/11/28 07:13:23;;;;;;;17.70;11.55;;;3.80;99.90;;;;;;4993884;28;20227;-72
2021/11/28 07:15:50;;;;;;;15.80;10.40;;;3.70;99.90;;;;;;4995462;28;20242;-72
2021/11/28 07:18:18;;;;;;;16.95;11.75;;;3.70;99.90;;;;;;4993676;28;20227;-73
2021/11/28 07:20:45;;;;;;;20.50;12.32;;;3.80;99.90;;;;;;4992651;28;20263;-73
2021/11/28 07:23:12;;;;;;;17.33;11.07;;;3.80;99.90;;;;;;4991535;28;20304;-72
2021/11/28 07:25:38;;;;;;;16.98;10.45;;;3.80;99.90;;;;;;4992460;28;20585;-72
2021/11/28 07:28:05;;;;;;;15.75;10.60;;;3.80;99.90;;;;;;4993041;28;20211;-72
2021/11/28 07:30:32;;;;;;;20.38;11.32;;;3.80;99.90;;;;;;4992449;28;20573;-73
2021/11/28 07:32:59;;;;;;;14.93;10.73;;;3.80;99.90;;;;;;4992487;28;20235;-74
2021/11/28 07:35:27;;;;;;;16.27;10.73;;;3.80;99.90;;;;;;4991872;28;20223;-74
2021/11/28 07:37:54;;;;;;;18.27;11.30;;;3.80;99.90;;;;;;4992258;28;20234;-74
2021/11/28 07:40:21;;;;;;;16.13;11.15;;;3.80;99.90;;;;;;4992343;28;20665;-73
2021/11/28 07:42:47;;;;;;;19.83;11.13;;;3.80;99.90;;;;;;4993417;28;20211;-74
2021/11/28 07:45:14;;;;;;;17.65;9.95;;;3.80;99.90;;;;;;4992437;28;20596;-74
2021/11/28 07:47:41;;;;;;;17.35;11.30;;;3.80;99.90;;;;;;4992744;28;20204;-74
2021/11/28 07:50:09;;;;;;;19.35;11.02;;;3.80;99.90;;;;;;4991355;28;20218;-74
2021/11/28 07:52:37;;;;;;;14.70;10.68;;;3.80;99.90;;;;;;4992985;28;20235;-74
2021/11/28 07:55:04;;;;;;;18.98;10.52;;;3.80;99.90;;;;;;4992449;28;20235;-74
2021/11/28 07:57:31;;;;;;;15.98;10.52;;;3.80;99.90;;;;;;4992514;28;20307;-74
2021/11/28 07:59:58;;;;;;;15.25;10.75;;;3.80;99.90;;;;;;4992549;28;20212;-74
2021/11/28 08:02:24;;;;;;;17.48;10.68;;;3.80;99.90;;;;;;4992190;28;20211;-75
2021/11/28 08:04:51;;;;;;;19.42;10.70;;;3.80;99.90;;;;;;4991303;28;20216;-74
2021/11/28 08:07:18;;;;;;;20.55;12.18;;;3.90;99.90;;;;;;4992265;28;20211;-74
2021/11/28 08:09:47;;;;;;;18.80;12.05;;;3.90;99.90;;;;;;4992050;28;20211;-74
2021/11/28 08:12:13;;;;;;;18.02;11.65;;;3.90;99.90;;;;;;4985194;28;20315;-74
2021/11/28 08:14:40;;;;;;;17.50;10.80;;;3.90;99.90;;;;;;4991901;28;20630;-74
2021/11/28 08:17:07;;;;;;;15.45;11.18;;;3.90;99.90;;;;;;4992208;28;20215;-74
2021/11/28 08:19:34;;;;;;;16.02;11.02;;;3.90;99.90;;;;;;4990909;28;20219;-75
2021/11/28 08:22:01;;;;;;;20.45;13.60;;;3.90;99.90;;;;;;4992214;28;20310;-73
2021/11/28 08:24:28;;;;;;;20.88;11.65;;;3.90;99.90;;;;;;4991560;28;20207;-72
2021/11/28 08:26:56;;;;;;;23.30;12.82;;;3.90;99.90;;;;;;4991292;28;20828;-74
2021/11/28 08:29:23;;;;;;;22.38;12.77;;;3.90;99.90;;;;;;4991524;28;20731;-73
2021/11/28 08:31:50;;;;;;;20.00;11.43;;;3.90;99.90;;;;;;4991866;28;20215;-72
2021/11/28 08:34:17;;;;;;;18.02;11.00;;;3.90;99.90;;;;;;4990570;28;20212;-73
2021/11/28 08:36:44;;;;;;;20.30;11.52;;;3.90;99.90;;;;;;4992184;28;20260;-72
2021/11/28 08:39:11;;;;;;;20.80;12.77;;;3.90;99.90;;;;;;4992868;28;20589;-73
2021/11/28 08:41:38;;;;;;;20.92;12.85;;;3.90;99.90;;;;;;4992079;28;20215;-73
2021/11/28 08:44:07;;;;;;;19.80;12.48;;;3.90;99.90;;;;;;4991580;28;20599;-72
2021/11/28 08:46:34;;;;;;;18.75;11.63;;;3.90;99.90;;;;;;4991663;28;20220;-72
2021/11/28 08:49:01;;;;;;;19.92;14.25;;;3.90;99.90;;;;;;4992550;28;20211;-74
2021/11/28 08:51:28;;;;;;;19.20;13.30;;;3.90;99.90;;;;;;4996846;28;20207;-74
2021/11/28 08:53:56;;;;;;;24.90;14.20;;;4.00;99.90;;;;;;4996290;28;20231;-73
2021/11/28 08:56:24;;;;;;;22.88;12.38;;;4.00;99.90;;;;;;4996379;28;20601;-70
2021/11/28 08:58:51;;;;;;;20.95;12.57;;;4.00;99.90;;;;;;4995890;28;20246;-72
2021/11/28 09:01:19;;;;;;;30.45;14.38;;;4.00;99.90;;;;;;4995679;28;20534;-72
2021/11/28 09:03:46;;;;;;;24.77;13.80;;;4.00;99.90;;;;;;4995074;28;20555;-73
2021/11/28 09:06:13;;;;;;;27.88;15.18;;;4.00;99.90;;;;;;4995245;28;20228;-73
2021/11/28 09:08:40;;;;;;;26.70;14.32;;;4.00;99.90;;;;;;4995074;28;20203;-71
2021/11/28 09:11:08;;;;;;;31.17;15.13;;;4.00;99.90;;;;;;4994800;28;20222;-72
2021/11/28 09:13:36;;;;;;;22.35;12.60;;;4.00;99.90;;;;;;4994751;28;20231;-72
2021/11/28 09:16:04;;;;;;;72.95;38.25;;;4.00;99.90;;;;;;4994570;28;20586;-72
2021/11/28 09:18:35;;;;;;;27.40;15.73;;;4.00;99.90;;;;;;4993958;28;20216;-70
2021/11/28 09:21:03;;;;;;;29.40;15.15;;;4.00;99.90;;;;;;4994499;28;20307;-71
2021/11/28 09:26:14;;;;;;;27.92;15.27;;;4.00;99.90;;;;;;4994494;28;20234;-70
2021/11/28 09:28:41;;;;;;;28.63;14.07;;;4.00;99.90;;;;;;4994947;28;20590;-71
2021/11/28 09:31:10;;;;;;;26.52;15.35;;;4.00;99.90;;;;;;4994345;28;20211;-71
2021/11/28 09:33:39;;;;;;;26.33;15.45;;;4.00;99.90;;;;;;4994089;28;20798;-70
2021/11/28 09:36:06;;;;;;;29.10;14.73;;;4.10;99.90;;;;;;4994553;28;20235;-72
2021/11/28 09:38:33;;;;;;;28.92;15.90;;;4.10;99.90;;;;;;4994064;28;20207;-72
2021/11/28 09:41:03;;;;;;;34.20;17.00;;;4.10;99.90;;;;;;4994649;28;20211;-73
2021/11/28 09:43:34;;;;;;;32.33;16.30;;;4.10;99.90;;;;;;4994344;28;20204;-72
2021/11/28 09:46:04;;;;;;;30.27;16.00;;;4.20;99.90;;;;;;4994147;28;20232;-72
2021/11/28 09:48:33;;;;;;;30.80;16.08;;;4.20;99.90;;;;;;4993497;28;20677;-72
2021/11/28 09:51:02;;;;;;;24.23;13.95;;;4.20;99.90;;;;;;4994317;28;20208;-73
2021/11/28 09:53:31;;;;;;;34.88;16.40;;;4.30;99.90;;;;;;4994260;28;20263;-73
2021/11/28 09:55:58;;;;;;;31.40;16.60;;;4.30;99.90;;;;;;4995455;28;20331;-73
2021/11/28 09:58:26;;;;;;;29.10;16.83;;;4.30;99.90;;;;;;4994631;28;20211;-73
2021/11/28 10:00:53;;;;;;;38.13;17.92;;;4.30;99.90;;;;;;4993865;28;20227;-73
2021/11/28 10:03:20;;;;;;;32.25;17.25;;;4.40;99.90;;;;;;4993624;28;20254;-74
2021/11/28 10:05:48;;;;;;;36.22;16.95;;;4.40;99.90;;;;;;4994239;28;20323;-74
2021/11/28 10:08:16;;;;;;;29.00;16.05;;;4.40;99.90;;;;;;4994632;28;20315;-72
2021/11/28 10:10:45;;;;;;;29.85;15.93;;;4.40;99.90;;;;;;4994079;28;20688;-73
2021/11/28 10:13:13;;;;;;;24.70;13.90;;;4.40;99.90;;;;;;4989497;28;20227;-72
2021/11/28 10:15:40;;;;;;;24.23;13.65;;;4.40;99.90;;;;;;4985773;28;20251;-72
2021/11/28 10:18:09;;;;;;;34.17;15.48;;;4.40;99.90;;;;;;4993822;28;20231;-73
2021/11/28 10:20:39;;;;;;;27.50;13.32;;;4.50;99.90;;;;;;4992997;28;20219;-71
2021/11/28 10:23:05;;;;;;;26.40;14.75;;;4.50;99.90;;;;;;4993839;28;20323;-71
2021/11/28 10:25:33;;;;;;;24.30;12.65;;;4.40;99.90;;;;;;4993748;28;20228;-73
2021/11/28 10:28:05;;;;;;;19.48;11.65;;;4.40;99.90;;;;;;4993777;28;20211;-72
2021/11/28 10:30:35;;;;;;;22.92;12.25;;;4.40;99.90;;;;;;4993082;28;20215;-72
2021/11/28 10:33:09;;;;;;;18.10;11.43;;;4.40;99.90;;;;;;4993732;28;20227;-72
2021/11/28 10:35:36;;;;;;;19.60;11.30;;;4.40;99.90;;;;;;4992643;28;20600;-73
2021/11/28 10:38:11;;;;;;;20.77;11.88;;;4.40;99.90;;;;;;4993739;28;20214;-72
2021/11/28 10:40:44;;;;;;;16.50;10.32;;;4.40;99.90;;;;;;4993229;28;20269;-72
2021/11/28 10:43:13;;;;;;;23.50;12.52;;;4.40;99.90;;;;;;4989897;28;20598;-72
2021/11/28 10:45:47;;;;;;;20.73;11.35;;;4.40;99.90;;;;;;4985495;28;20227;-72
2021/11/28 10:48:15;;;;;;;19.98;11.18;;;4.50;99.90;;;;;;4993594;28;20277;-72
2021/11/28 10:50:42;;;;;;;18.83;13.02;;;4.40;99.90;;;;;;4992668;28;20612;-73
2021/11/28 10:53:11;;;;;;;18.63;11.02;;;4.50;99.90;;;;;;4993441;28;20649;-73
2021/11/28 10:55:42;;;;;;;17.05;10.85;;;4.50;99.90;;;;;;4993153;28;20224;-74
2021/11/28 10:58:12;;;;;;;20.83;14.10;;;4.50;99.90;;;;;;4993446;28;20215;-74
2021/11/28 11:00:41;;;;;;;19.67;11.65;;;4.50;99.90;;;;;;4992879;28;20266;-72
2021/11/28 11:03:17;;;;;;;19.35;12.02;;;4.50;99.90;;;;;;4993184;28;20208;-73
2021/11/28 11:05:44;;;;;;;20.45;11.55;;;4.60;99.90;;;;;;4992693;28;20608;-72
2021/11/28 11:08:15;;;;;;;20.55;13.20;;;4.60;99.90;;;;;;4993176;28;20253;-72
2021/11/28 11:10:44;;;;;;;21.20;12.35;;;4.70;99.90;;;;;;4992783;28;20219;-72
2021/11/28 11:13:13;;;;;;;20.95;13.35;;;4.70;99.90;;;;;;4992271;28;20231;-72
2021/11/28 11:15:43;;;;;;;20.90;11.88;;;4.70;99.90;;;;;;4992448;28;20611;-73
2021/11/28 11:18:12;;;;;;;21.40;12.75;;;4.70;99.90;;;;;;5019699;23;20227;-69
2021/11/28 11:20:42;;;;;;;21.75;11.43;;;4.70;99.90;;;;;;5010993;28;20211;-68
2021/11/28 11:23:34;;;;;;;24.63;14.23;;;4.70;99.90;;;;;;5010860;28;20203;-69
2021/11/28 11:26:20;;;;;;;27.95;13.95;;;4.70;99.90;;;;;;5012000;28;20199;-68
2021/11/28 11:29:07;;;;;;;25.23;14.48;;;4.60;99.90;;;;;;5002619;28;20231;-69
2021/11/28 11:31:35;;;;;;;26.85;13.57;;;4.60;99.90;;;;;;4992341;28;20239;-69
2021/11/28 11:34:02;;;;;;;26.95;14.68;;;4.60;99.90;;;;;;4991517;28;20227;-69
2021/11/28 11:36:52;;;;;;;30.20;15.15;;;4.60;99.90;;;;;;4992295;28;20672;-69
2021/11/28 11:39:18;;;;;;;22.35;11.82;;;4.50;99.90;;;;;;4992216;28;20227;-69
2021/11/28 11:41:46;;;;;;;24.10;14.35;;;4.50;99.90;;;;;;4992463;28;20223;-68
2021/11/28 11:44:16;;;;;;;31.33;14.07;;;4.50;99.90;;;;;;4992786;28;20211;-68
2021/11/28 11:46:46;;;;;;;24.65;13.50;;;4.50;99.90;;;;;;4992296;28;20307;-68
2021/11/28 11:49:13;;;;;;;29.05;15.43;;;4.50;99.90;;;;;;4991173;28;20573;-68
2021/11/28 11:51:41;;;;;;;24.73;12.95;;;4.50;99.90;;;;;;4992047;28;20231;-69
2021/11/28 11:54:16;;;;;;;25.05;15.18;;;4.50;99.90;;;;;;4991562;28;20672;-70
2021/11/28 11:56:42;;;;;;;23.02;12.25;;;4.50;99.90;;;;;;4992064;28;20707;-68
2021/11/28 11:59:17;;;;;;;20.95;13.32;;;4.50;99.90;;;;;;4991998;28;20230;-68
2021/11/28 12:01:45;;;;;;;24.10;13.00;;;4.50;99.90;;;;;;4991882;28;20207;-70
2021/11/28 12:04:32;;;;;;;24.45;13.90;;;4.50;99.90;;;;;;4991071;28;20277;-68
2021/11/28 12:06:58;;;;;;;23.92;13.02;;;4.50;99.90;;;;;;4991645;28;20242;-71
2021/11/28 12:09:26;;;;;;;25.10;13.23;;;4.50;99.90;;;;;;4991601;28;20576;-68
2021/11/28 12:11:55;;;;;;;27.65;13.65;;;4.60;99.90;;;;;;4991720;28;20596;-68
2021/11/28 12:14:23;;;;;;;24.33;13.90;;;4.60;99.90;;;;;;4990009;28;20270;-68
2021/11/28 12:16:49;;;;;;;20.15;12.50;;;4.60;99.90;;;;;;4991567;28;20614;-68
2021/11/28 12:19:41;;;;;;;24.58;14.23;;;4.60;99.90;;;;;;4990588;28;20239;-68
2021/11/28 12:22:29;;;;;;;31.02;15.55;;;4.60;99.90;;;;;;4991917;28;20258;-68
2021/11/28 12:25:38;;;;;;;27.40;15.20;;;4.70;99.90;;;;;;4991180;28;20250;-68
2021/11/28 12:28:26;;;;;;;30.17;16.48;;;4.70;99.90;;;;;;4991731;28;20230;-68
2021/11/28 12:30:55;;;;;;;29.42;17.05;;;4.70;99.90;;;;;;4991760;28;20203;-68
2021/11/28 12:34:03;;;;;;;27.23;16.52;;;4.80;99.90;;;;;;4990874;28;20581;-68
2021/11/28 12:36:45;;;;;;;28.00;14.43;;;4.80;99.90;;;;;;4991351;28;20219;-69
2021/11/28 12:39:36;;;;;;;24.60;14.00;;;4.80;99.90;;;;;;4991531;28;20326;-68
2021/11/28 12:42:04;;;;;;;23.98;13.80;;;4.90;99.90;;;;;;4991379;28;20208;-68
2021/11/28 12:44:32;;;;;;;28.48;15.60;;;4.90;99.90;;;;;;4987761;28;20204;-68
2021/11/28 12:47:02;;;;;;;25.15;13.80;;;4.90;99.90;;;;;;4991523;28;20208;-68
2021/11/28 12:49:32;;;;;;;24.70;13.40;;;4.90;99.90;;;;;;4990961;28;20228;-68
2021/11/28 12:52:32;;;;;;;27.98;16.35;;;5.00;99.90;;;;;;4991311;28;20282;-68
2021/11/28 12:55:23;;;;;;;27.92;15.73;;;5.10;99.90;;;;;;4991358;28;20592;-68
2021/11/28 12:58:10;;;;;;;27.38;14.68;;;5.10;99.90;;;;;;4991653;28;20211;-68
2021/11/28 13:00:39;;;;;;;24.85;14.90;;;5.20;99.90;;;;;;4991548;28;20208;-68
2021/11/28 13:03:24;;;;;;;23.65;13.98;;;5.10;99.90;;;;;;4994492;28;20285;-68
2021/11/28 13:05:53;;;;;;;23.10;13.85;;;5.20;99.90;;;;;;4994103;28;20266;-68
2021/11/28 13:08:37;;;;;;;40.15;24.80;;;5.10;99.90;;;;;;4991649;28;20230;-68
2021/11/28 13:11:14;;;;;;;31.35;16.95;;;5.20;99.90;;;;;;4990848;28;20230;-68
2021/11/28 13:13:45;;;;;;;31.27;16.92;;;5.20;99.90;;;;;;4991326;28;20263;-68
2021/11/28 13:16:20;;;;;;;24.95;15.70;;;5.30;99.90;;;;;;4991969;28;20291;-68
2021/11/28 13:18:52;;;;;;;29.42;15.25;;;5.30;99.90;;;;;;4990928;28;20576;-68
2021/11/28 13:21:22;;;;;;;27.10;17.45;;;5.20;99.90;;;;;;4992406;28;20581;-68
2021/11/28 13:23:51;;;;;;;24.90;15.15;;;5.20;99.90;;;;;;4994235;28;20214;-68
2021/11/28 13:26:19;;;;;;;22.63;13.70;;;5.20;99.90;;;;;;4994474;28;20695;-68
2021/11/28 13:28:46;;;;;;;26.08;16.88;;;5.30;99.90;;;;;;4994296;28;20703;-68
2021/11/28 13:31:17;;;;;;;22.02;13.82;;;5.30;99.90;;;;;;4995001;28;20263;-68
2021/11/28 13:33:55;;;;;;;25.52;17.38;;;5.30;99.90;;;;;;4993895;28;20238;-68
2021/11/28 13:36:23;;;;;;;16.83;11.73;;;5.30;99.90;;;;;;4998207;28;20562;-68
2021/11/28 13:38:51;;;;;;;19.60;11.98;;;5.30;99.90;;;;;;4998409;28;20231;-68
2021/11/28 13:41:21;;;;;;;23.20;14.95;;;5.20;99.90;;;;;;4998832;28;20651;-68
2021/11/28 13:43:50;;;;;;;19.83;14.70;;;5.20;99.90;;;;;;4998969;28;20286;-68
2021/11/28 13:46:19;;;;;;;23.13;15.40;;;5.10;99.90;;;;;;4995421;28;20208;-68
2021/11/28 13:48:53;;;;;;;27.13;18.65;;;5.10;99.90;;;;;;4993463;28;20250;-68
2021/11/28 13:51:46;;;;;;;22.30;15.65;;;5.10;99.90;;;;;;4994227;28;20222;-68
2021/11/28 13:54:16;;;;;;;22.45;15.30;;;5.10;99.90;;;;;;4993988;28;20311;-68
2021/11/28 13:56:49;;;;;;;13.77;10.52;;;5.10;99.90;;;;;;4993893;28;20203;-68
2021/11/28 13:59:18;;;;;;;13.63;11.05;;;5.10;99.90;;;;;;4994241;28;20567;-68
2021/11/28 14:01:45;;;;;;;16.90;10.98;;;5.00;99.90;;;;;;4993814;28;20219;-68
2021/11/28 14:04:25;;;;;;;16.23;12.80;;;5.00;99.90;;;;;;4993130;28;20246;-68
2021/11/28 14:06:54;;;;;;;12.27;10.98;;;5.00;99.90;;;;;;4993655;28;20207;-68
2021/11/28 14:09:22;;;;;;;11.10;9.90;;;4.90;99.90;;;;;;4996560;28;20224;-67
2021/11/28 14:11:50;;;;;;;14.55;10.05;;;5.00;99.90;;;;;;5000174;28;20219;-68
2021/11/28 14:14:19;;;;;;;14.43;11.15;;;4.90;99.90;;;;;;4999003;28;20235;-68
2021/11/28 14:16:52;;;;;;;15.07;11.27;;;4.90;99.90;;;;;;4999864;28;20211;-68
2021/11/28 14:19:37;;;;;;;13.63;10.82;;;4.90;99.90;;;;;;4998959;28;20655;-68
2021/11/28 14:22:21;;;;;;;14.00;11.20;;;4.90;99.90;;;;;;5001174;28;20270;-68
2021/11/28 14:24:48;;;;;;;14.13;10.13;;;4.90;99.90;;;;;;4998512;28;20207;-68
2021/11/28 14:27:17;;;;;;;15.40;9.98;;;4.80;99.90;;;;;;4996979;28;20258;-68
2021/11/28 14:29:44;;;;;;;14.20;10.77;;;4.80;99.90;;;;;;4993334;28;20231;-68
2021/11/28 14:32:12;;;;;;;14.32;10.43;;;4.80;99.90;;;;;;4993230;28;20223;-68
2021/11/28 14:34:40;;;;;;;13.70;9.65;;;4.80;99.90;;;;;;4992472;28;20944;-68
2021/11/28 14:37:17;;;;;;;12.95;9.93;;;4.80;99.90;;;;;;4993528;28;20284;-68
2021/11/28 14:39:45;;;;;;;13.65;9.88;;;4.80;99.90;;;;;;4993184;28;20279;-68
2021/11/28 14:42:16;;;;;;;13.25;9.35;;;4.70;99.90;;;;;;4992988;28;20663;-68
2021/11/28 14:44:45;;;;;;;14.23;9.57;;;4.70;99.90;;;;;;4989178;28;20208;-68
2021/11/28 14:47:22;;;;;;;12.68;9.85;;;4.70;99.90;;;;;;4991955;28;20211;-68
2021/11/28 14:49:51;;;;;;;16.30;10.25;;;4.70;99.90;;;;;;4992337;28;20603;-68
2021/11/28 14:52:28;;;;;;;12.30;10.05;;;4.70;99.90;;;;;;4993245;28;20207;-68
2021/11/28 14:54:55;;;;;;;12.30;9.38;;;4.70;99.90;;;;;;4992587;28;20228;-68
2021/11/28 14:57:23;;;;;;;14.30;10.40;;;4.70;99.90;;;;;;4992857;28;20212;-68
2021/11/28 14:59:51;;;;;;;16.77;11.50;;;4.70;99.90;;;;;;4992556;28;20326;-68
2021/11/28 15:02:20;;;;;;;14.50;11.02;;;4.60;99.90;;;;;;4993195;28;20215;-68
2021/11/28 15:04:59;;;;;;;16.95;13.30;;;4.60;99.90;;;;;;4992237;28;20204;-68
2021/11/28 15:07:29;;;;;;;14.48;11.50;;;4.60;99.90;;;;;;4992941;28;20207;-68
2021/11/28 15:09:58;;;;;;;16.77;10.88;;;4.60;99.90;;;;;;4992065;28;20720;-68
2021/11/28 15:12:30;;;;;;;15.77;11.45;;;4.60;99.90;;;;;;4992676;28;20639;-68
2021/11/28 15:14:59;;;;;;;15.20;11.25;;;4.60;99.90;;;;;;4992358;28;20232;-67
2021/11/28 15:17:27;;;;;;;18.10;12.88;;;4.60;99.90;;;;;;4992424;28;20691;-67
2021/11/28 15:20:05;;;;;;;17.20;12.20;;;4.60;99.90;;;;;;4991709;28;20270;-67
2021/11/28 15:22:32;;;;;;;15.65;10.82;;;4.60;99.90;;;;;;4992701;28;20195;-67
2021/11/28 15:24:58;;;;;;;16.35;11.98;;;4.50;99.90;;;;;;4992101;28;20204;-67
2021/11/28 15:27:25;;;;;;;16.52;12.15;;;4.50;99.90;;;;;;4992244;28;20270;-68
2021/11/28 15:29:52;;;;;;;20.50;14.80;;;4.50;99.90;;;;;;4991842;28;20763;-67
2021/11/28 15:32:19;;;;;;;19.33;16.08;;;4.50;99.90;;;;;;4990480;28;20212;-68
2021/11/28 15:34:45;;;;;;;27.02;21.10;;;4.50;99.90;;;;;;4991119;28;20239;-67
2021/11/28 15:37:13;;;;;;;20.80;15.70;;;4.50;99.90;;;;;;4991982;28;20270;-67
2021/11/28 15:39:40;;;;;;;21.63;14.10;;;4.50;99.90;;;;;;4991479;28;20232;-69
2021/11/28 15:42:07;;;;;;;14.70;12.45;;;4.50;99.90;;;;;;4991589;28;20306;-66
2021/11/28 15:44:34;;;;;;;17.05;12.93;;;4.50;99.90;;;;;;4991555;28;20395;-67
2021/11/28 15:47:01;;;;;;;18.63;13.55;;;4.50;99.90;;;;;;4991693;28;20208;-67
2021/11/28 15:49:27;;;;;;;19.58;14.18;;;4.50;99.90;;;;;;4991445;28;20274;-67
2021/11/28 15:51:54;;;;;;;16.63;14.65;;;4.40;99.90;;;;;;4991680;28;20644;-67
2021/11/28 15:54:23;;;;;;;16.30;13.38;;;4.40;99.90;;;;;;4991498;28;20594;-67
2021/11/28 15:56:49;;;;;;;16.65;13.20;;;4.40;99.90;;;;;;4992017;28;20212;-67
2021/11/28 15:59:16;;;;;;;19.52;13.27;;;4.40;99.90;;;;;;4991494;28;20231;-67
2021/11/28 16:01:43;;;;;;;20.83;14.18;;;4.40;99.90;;;;;;4991487;28;20219;-67
2021/11/28 16:04:10;;;;;;;17.30;13.35;;;4.40;99.90;;;;;;4990941;28;20203;-67
2021/11/28 16:06:37;;;;;;;19.17;15.30;;;4.30;99.90;;;;;;4991676;28;20730;-67
2021/11/28 16:09:04;;;;;;;19.33;15.50;;;4.30;99.90;;;;;;4991704;28;20236;-67
2021/11/28 16:11:37;;;;;;;17.20;14.32;;;4.30;99.90;;;;;;4991124;28;20274;-67
2021/11/28 16:14:04;;;;;;;19.95;14.27;;;4.20;99.90;;;;;;4990209;28;20208;-67
2021/11/28 16:16:30;;;;;;;19.40;12.95;;;4.20;99.90;;;;;;4991257;28;20212;-67
2021/11/28 16:18:57;;;;;;;20.50;15.10;;;4.20;99.90;;;;;;4990901;28;20313;-67
2021/11/28 16:21:24;;;;;;;21.20;14.15;;;4.20;99.90;;;;;;4991133;28;20298;-67
2021/11/28 16:23:51;;;;;;;22.63;15.25;;;4.20;99.90;;;;;;4991078;28;20628;-67
2021/11/28 16:26:17;;;;;;;24.73;15.65;;;4.20;99.90;;;;;;4991264;28;20582;-67
2021/11/28 16:28:45;;;;;;;20.40;15.02;;;4.20;99.90;;;;;;4990985;28;20232;-67
2021/11/28 16:31:12;;;;;;;19.05;13.90;;;4.10;99.90;;;;;;4990786;28;20222;-67
2021/11/28 16:33:39;;;;;;;24.65;17.10;;;4.10;99.90;;;;;;4990684;28;20222;-67
2021/11/28 16:36:06;;;;;;;22.67;15.57;;;4.10;99.90;;;;;;4991177;28;20235;-67
2021/11/28 16:38:32;;;;;;;22.30;15.27;;;4.00;99.90;;;;;;4990950;28;20740;-67
2021/11/28 16:40:59;;;;;;;18.40;12.50;;;4.00;99.90;;;;;;4991149;28;20665;-67
2021/11/28 16:43:26;;;;;;;21.55;13.18;;;3.90;99.90;;;;;;4990920;28;20677;-67
2021/11/28 16:45:54;;;;;;;23.98;15.48;;;3.90;99.90;;;;;;4991624;28;20291;-67
2021/11/28 16:48:21;;;;;;;27.70;17.02;;;3.90;99.90;;;;;;4990500;28;20235;-67
2021/11/28 16:50:48;;;;;;;28.05;16.48;;;3.80;99.90;;;;;;4991035;28;20203;-67
2021/11/28 16:53:15;;;;;;;22.20;15.43;;;3.80;99.90;;;;;;4991307;28;20262;-67
2021/11/28 16:55:42;;;;;;;25.42;15.38;;;3.70;99.90;;;;;;4991141;28;20223;-67
2021/11/28 16:58:09;;;;;;;23.85;14.85;;;3.70;99.90;;;;;;4990953;28;20630;-67
2021/11/28 17:00:38;;;;;;;25.30;16.15;;;3.60;99.90;;;;;;4990856;28;20586;-68
2021/11/28 17:03:07;;;;;;;27.00;15.57;;;3.60;99.90;;;;;;4986326;28;20216;-68
2021/11/28 17:05:33;;;;;;;29.95;17.08;;;3.50;99.90;;;;;;4990352;28;20246;-68
2021/11/28 17:08:00;;;;;;;29.27;18.42;;;3.50;99.90;;;;;;4991026;28;20691;-68
2021/11/28 17:10:27;;;;;;;24.77;15.30;;;3.50;99.90;;;;;;4992652;28;20636;-68
2021/11/28 17:12:56;;;;;;;26.23;16.63;;;3.40;99.90;;;;;;4994919;28;20207;-68
2021/11/28 17:15:23;;;;;;;25.52;16.15;;;3.40;99.90;;;;;;4994937;28;20231;-67
2021/11/28 17:17:51;;;;;;;29.20;18.00;;;3.40;99.90;;;;;;4995153;28;20270;-69
2021/11/28 17:20:20;;;;;;;29.52;15.80;;;3.40;99.90;;;;;;4993799;28;20282;-67
2021/11/28 17:22:47;;;;;;;27.38;16.80;;;3.40;99.90;;;;;;4995277;28;20212;-67
2021/11/28 17:25:15;;;;;;;26.88;18.90;;;3.30;99.90;;;;;;4994126;28;20270;-67
2021/11/28 17:27:43;;;;;;;33.55;17.92;;;3.30;99.90;;;;;;4994918;28;20237;-68
2021/11/28 17:30:12;;;;;;;29.55;18.33;;;3.30;99.90;;;;;;4994474;28;20207;-68
2021/11/28 17:32:39;;;;;;;38.05;19.30;;;3.30;99.90;;;;;;4993105;28;20212;-68
2021/11/28 17:35:08;;;;;;;36.47;19.20;;;3.30;99.90;;;;;;4993505;28;20268;-68
2021/11/28 17:37:37;;;;;;;34.60;18.00;;;3.30;99.90;;;;;;4994371;28;20799;-68
2021/11/28 17:40:05;;;;;;;53.88;27.10;;;3.30;99.90;;;;;;4994183;28;20228;-68
2021/11/28 17:42:32;;;;;;;69.57;35.38;;;3.30;99.90;;;;;;4994820;28;20212;-69
2021/11/28 17:44:59;;;;;;;51.35;29.20;;;3.30;99.90;;;;;;4994614;28;20574;-68
2021/11/28 17:47:25;;;;;;;34.80;20.92;;;3.30;99.90;;;;;;4994557;28;20216;-68
2021/11/28 17:49:55;;;;;;;35.58;21.55;;;3.30;99.90;;;;;;4993599;28;20255;-68
2021/11/28 17:52:22;;;;;;;38.50;22.15;;;3.30;99.90;;;;;;4994429;28;20274;-68